Terminal Aerodrome Forecast
Issued by NWS

Home | Current Version | Previous Version | Text Only | Print | Product List | Glossary On
Versions: 1 2 3 4 5 6 7 8 9 10 11 12 13 14 15 16
610
FTUS45 KABQ 052334
TAFTCC
TAF
KTCC 052334Z 0600/0624 02012G20KT P6SM BKN070
     FM060200 28008KT P6SM SKC
     FM062000 23015KT P6SM SKC=

USA.gov is the U.S. government's official web portal to all federal, state and local government web resources and services.